createdAt,value
2023-02-02T00:02:00.988Z,66.23
2023-02-02T00:05:07.675Z,65.07
2023-02-02T00:08:13.917Z,64.84
2023-02-02T00:11:21.042Z,64.74
2023-02-02T00:14:27.905Z,64.61
2023-02-02T00:17:34.277Z,64.24
2023-02-02T00:20:38.754Z,64.14
2023-02-02T00:23:45.255Z,64.56
2023-02-02T00:26:53.461Z,63.88
2023-02-02T00:29:59.949Z,63.96
2023-02-02T00:33:04.338Z,63.98
2023-02-02T00:36:11.325Z,64.34
2023-02-02T00:39:20.323Z,64.84
2023-02-02T00:42:26.613Z,65.34
2023-02-02T00:45:31.573Z,65.91
2023-02-02T00:48:37.830Z,66.46
2023-02-02T00:51:44.090Z,66.70
2023-02-02T00:54:50.311Z,67.02
2023-02-02T00:57:56.609Z,67.29
2023-02-02T01:01:01.126Z,67.14
2023-02-02T01:04:07.759Z,67.83
2023-02-02T01:07:14.040Z,67.84
2023-02-02T01:10:20.384Z,67.60
2023-02-02T01:13:24.871Z,67.89
2023-02-02T01:16:31.200Z,68.08
2023-02-02T01:19:35.763Z,67.76
2023-02-02T01:22:42.029Z,67.91
2023-02-02T01:25:54.246Z,67.87
2023-02-02T01:29:00.530Z,67.72
2023-02-02T01:32:05.491Z,67.95
2023-02-02T01:35:12.571Z,68.16
2023-02-02T01:38:18.959Z,67.45
2023-02-02T01:41:25.009Z,67.86
2023-02-02T01:45:07.406Z,68.03
2023-02-02T01:48:14.684Z,67.97
2023-02-02T01:51:24.099Z,67.83
2023-02-02T01:54:34.979Z,68.01
2023-02-02T01:57:45.007Z,68.23
2023-02-02T02:00:51.923Z,68.23
2023-02-02T02:03:58.817Z,68.46
2023-02-02T02:07:06.230Z,68.72
2023-02-02T02:10:13.373Z,68.89
2023-02-02T02:13:21.024Z,68.96
2023-02-02T02:16:37.385Z,68.99
2023-02-02T02:20:36.403Z,68.76
2023-02-02T02:24:39.069Z,68.84
2023-02-02T02:28:06.008Z,68.79
2023-02-02T02:31:41.622Z,68.86
2023-02-02T02:34:49.475Z,69.08
2023-02-02T02:38:01.971Z,69.28
2023-02-02T02:41:13.591Z,69.22
2023-02-02T02:44:21.172Z,69.04
2023-02-02T02:47:30.191Z,69.03
2023-02-02T02:50:36.490Z,68.65
2023-02-02T02:53:41.068Z,68.92
2023-02-02T02:57:05.258Z,69.12
2023-02-02T03:00:28.163Z,68.91
2023-02-02T03:03:50.575Z,68.81
2023-02-02T03:07:03.083Z,68.88
2023-02-02T03:10:12.954Z,69.07
2023-02-02T03:13:20.437Z,69.15
2023-02-02T03:16:26.695Z,69.31
2023-02-02T03:19:33.010Z,69.37
2023-02-02T03:22:37.531Z,69.47
2023-02-02T03:25:44.828Z,69.69
2023-02-02T03:28:54.907Z,69.40
2023-02-02T03:32:01.273Z,69.35
2023-02-02T03:35:06.096Z,69.17
2023-02-02T03:38:13.146Z,69.26
2023-02-02T03:41:19.600Z,69.44
2023-02-02T03:44:25.825Z,69.67
2023-02-02T03:47:32.939Z,69.62
2023-02-02T03:50:40.047Z,69.66
2023-02-02T03:53:47.716Z,69.67
2023-02-02T03:56:54.083Z,69.99
2023-02-02T04:00:00.373Z,70.06
2023-02-02T04:03:05.458Z,70.04
2023-02-02T04:06:11.734Z,69.98
2023-02-02T04:09:17.864Z,69.11
2023-02-02T04:12:24.079Z,69.16
2023-02-02T04:15:30.313Z,69.34
2023-02-02T04:18:34.885Z,69.50
2023-02-02T04:21:41.301Z,69.37
2023-02-02T04:24:47.613Z,69.36
2023-02-02T04:27:52.153Z,69.52
2023-02-02T04:30:59.824Z,69.39
2023-02-02T04:34:06.389Z,68.99
2023-02-02T04:37:13.109Z,69.18
2023-02-02T04:40:19.864Z,69.25
2023-02-02T04:43:26.183Z,68.94
2023-02-02T04:46:30.688Z,68.97
2023-02-02T04:49:36.934Z,69.25
2023-02-02T04:52:43.178Z,68.90
2023-02-02T04:55:49.470Z,68.83
2023-02-02T04:58:55.163Z,68.84
2023-02-02T05:02:02.520Z,68.91
2023-02-02T05:05:12.052Z,68.63
2023-02-02T05:08:18.307Z,68.39
2023-02-02T05:11:25.245Z,68.35
2023-02-02T05:14:31.447Z,68.11
2023-02-02T05:17:37.679Z,67.88
2023-02-02T05:20:42.277Z,67.53
2023-02-02T05:23:49.045Z,67.72
2023-02-02T05:26:58.702Z,67.55
2023-02-02T05:30:05.819Z,67.21
2023-02-02T05:33:12.049Z,67.40
2023-02-02T05:36:18.921Z,67.23
2023-02-02T05:39:25.277Z,66.88
2023-02-02T05:42:31.562Z,66.86
2023-02-02T05:45:36.241Z,66.75
2023-02-02T05:48:42.652Z,66.84
2023-02-02T05:51:48.672Z,66.83
2023-02-02T05:54:53.269Z,66.62
2023-02-02T05:57:59.608Z,66.63
2023-02-02T06:01:04.234Z,66.45
2023-02-02T06:04:10.486Z,66.29
2023-02-02T06:07:16.789Z,66.06
2023-02-02T06:10:21.500Z,65.74
2023-02-02T06:13:28.624Z,65.86
2023-02-02T06:16:34.758Z,65.72
2023-02-02T06:19:41.216Z,65.18
2023-02-02T06:22:48.368Z,65.09
2023-02-02T06:25:54.744Z,64.81
2023-02-02T06:28:59.270Z,64.55
2023-02-02T06:32:05.917Z,63.59
2023-02-02T06:35:13.264Z,63.40
2023-02-02T06:38:19.659Z,63.40
2023-02-02T06:41:24.479Z,63.34
2023-02-02T06:44:30.744Z,63.02
2023-02-02T06:47:37.141Z,62.32
2023-02-02T06:50:43.674Z,62.20
2023-02-02T06:53:50.395Z,61.64
2023-02-02T06:56:56.684Z,62.13
2023-02-02T07:00:01.832Z,61.66
2023-02-02T07:03:08.003Z,61.29
2023-02-02T07:06:19.724Z,61.16
2023-02-02T07:09:25.984Z,61.15
2023-02-02T07:12:32.184Z,60.89
2023-02-02T07:15:39.695Z,60.96
2023-02-02T07:18:48.330Z,60.07
2023-02-02T07:21:54.642Z,59.84
2023-02-02T07:24:59.256Z,60.33
2023-02-02T07:28:05.727Z,60.39
2023-02-02T07:31:20.313Z,60.50
2023-02-02T07:34:26.957Z,60.23
2023-02-02T07:37:33.230Z,60.37
2023-02-02T07:40:39.507Z,59.96
2023-02-02T07:43:44.294Z,59.87
2023-02-02T07:46:50.816Z,59.93
2023-02-02T07:49:57.039Z,58.71
2023-02-02T07:53:03.336Z,58.64
2023-02-02T07:56:09.556Z,59.14
2023-02-02T07:59:16.196Z,60.56
2023-02-02T08:02:22.494Z,63.74
2023-02-02T08:05:27.403Z,64.83
2023-02-02T08:08:33.786Z,64.75
2023-02-02T08:11:40.674Z,64.09
2023-02-02T08:14:46.908Z,63.67
2023-02-02T08:17:53.100Z,62.45
2023-02-02T08:21:01.228Z,62.39
2023-02-02T08:24:08.005Z,62.34
2023-02-02T08:27:14.317Z,62.31
2023-02-02T08:30:19.485Z,62.71
2023-02-02T08:33:25.782Z,63.06
2023-02-02T08:36:31.189Z,63.30
2023-02-02T08:39:37.425Z,63.40
2023-02-02T08:42:44.214Z,63.59
2023-02-02T08:46:04.564Z,63.70
2023-02-02T08:49:13.644Z,64.01
2023-02-02T08:52:19.920Z,63.92
2023-02-02T08:55:26.354Z,64.30
2023-02-02T08:58:33.974Z,64.10
2023-02-02T09:01:40.262Z,64.11
2023-02-02T09:04:45.663Z,64.14
2023-02-02T09:07:51.915Z,64.43
2023-02-02T09:10:58.167Z,64.60
2023-02-02T09:14:06.596Z,64.57
2023-02-02T09:17:13.170Z,65.07
2023-02-02T09:20:20.253Z,65.69
2023-02-02T09:23:27.325Z,65.23
2023-02-02T09:26:33.613Z,65.03
2023-02-02T09:29:38.374Z,65.01
2023-02-02T09:32:45.728Z,65.24
2023-02-02T09:35:51.985Z,64.82
2023-02-02T09:38:58.210Z,64.84
2023-02-02T09:42:16.744Z,64.91
2023-02-02T09:45:33.512Z,64.75
2023-02-02T09:48:47.608Z,64.31
2023-02-02T09:51:59.937Z,64.21
2023-02-02T09:55:13.516Z,64.25
2023-02-02T09:58:24.220Z,64.37
2023-02-02T10:01:36.592Z,64.40
2023-02-02T10:04:45.549Z,64.25
2023-02-02T10:07:58.173Z,64.16
2023-02-02T10:11:11.914Z,64.31
2023-02-02T10:14:29.059Z,64.20
2023-02-02T10:17:43.391Z,64.12
2023-02-02T10:20:57.805Z,64.16
2023-02-02T10:24:05.635Z,64.54
2023-02-02T10:27:17.661Z,65.11
2023-02-02T10:30:36.060Z,65.22
2023-02-02T10:33:42.682Z,65.27
2023-02-02T10:37:00.871Z,65.30
2023-02-02T10:40:24.358Z,65.62
2023-02-02T10:43:49.258Z,66.12
2023-02-02T10:46:59.038Z,66.00
2023-02-02T10:50:19.785Z,66.08
2023-02-02T10:53:29.026Z,65.95
2023-02-02T10:56:41.910Z,66.31
2023-02-02T10:59:58.628Z,66.58
2023-02-02T11:03:07.377Z,66.73
2023-02-02T11:06:34.704Z,67.30
2023-02-02T11:09:44.281Z,67.30
2023-02-02T11:12:53.215Z,66.93
2023-02-02T11:16:32.656Z,67.67
2023-02-02T11:19:45.536Z,67.89
2023-02-02T11:23:03.284Z,68.31
2023-02-02T11:26:10.199Z,68.21
2023-02-02T11:29:21.449Z,68.25
2023-02-02T11:32:33.205Z,67.93
2023-02-02T11:35:53.559Z,68.08
2023-02-02T11:39:21.030Z,68.02
2023-02-02T11:42:29.146Z,68.14
2023-02-02T11:45:39.210Z,68.11
2023-02-02T11:48:52.467Z,68.76
2023-02-02T11:52:04.560Z,68.94
2023-02-02T11:55:19.925Z,68.40
2023-02-02T11:58:28.585Z,68.48
2023-02-02T12:01:36.948Z,68.92
2023-02-02T12:04:43.613Z,68.58
2023-02-02T12:07:50.407Z,68.52
2023-02-02T12:11:01.787Z,68.58
2023-02-02T12:14:24.996Z,68.55
2023-02-02T12:17:40.547Z,68.60
2023-02-02T12:20:52.727Z,68.78
2023-02-02T12:24:14.911Z,68.59
2023-02-02T12:27:32.139Z,68.27
2023-02-02T12:30:49.509Z,68.22
2023-02-02T12:34:05.552Z,68.22
2023-02-02T12:37:21.925Z,68.07
2023-02-02T12:40:55.852Z,67.90
2023-02-02T12:44:07.086Z,67.78
2023-02-02T12:47:22.915Z,67.78
2023-02-02T12:50:35.971Z,67.59
2023-02-02T12:54:34.379Z,67.28
2023-02-02T12:57:41.063Z,67.63
2023-02-02T13:01:11.333Z,67.51
2023-02-02T13:08:02.541Z,67.23
2023-02-02T13:11:30.167Z,67.20
2023-02-02T13:14:41.901Z,66.90
2023-02-02T13:17:52.151Z,67.04
2023-02-02T13:21:03.028Z,66.77
2023-02-02T13:24:16.678Z,66.77
2023-02-02T13:27:25.113Z,66.79
2023-02-02T13:30:36.073Z,66.64
2023-02-02T13:33:46.027Z,66.35
2023-02-02T13:36:57.089Z,66.28
2023-02-02T13:40:07.146Z,66.48
2023-02-02T13:43:31.956Z,66.40
2023-02-02T13:46:46.840Z,66.28
2023-02-02T13:50:04.120Z,66.02
2023-02-02T13:53:31.397Z,65.95
2023-02-02T13:56:57.735Z,66.04
2023-02-02T14:00:15.218Z,66.15
2023-02-02T14:03:40.098Z,66.39
2023-02-02T14:06:58.447Z,66.37
2023-02-02T14:10:05.733Z,66.34
2023-02-02T14:13:38.597Z,65.97
2023-02-02T14:16:55.891Z,65.74
2023-02-02T14:20:03.617Z,65.62
2023-02-02T14:23:48.498Z,65.38
2023-02-02T14:26:56.778Z,65.20
2023-02-02T14:30:17.713Z,65.11
2023-02-02T14:33:47.708Z,64.97
2023-02-02T14:37:10.329Z,64.65
2023-02-02T14:40:40.086Z,64.57
2023-02-02T14:43:52.007Z,64.28
2023-02-02T14:46:59.302Z,64.27
2023-02-02T14:50:13.762Z,64.25
2023-02-02T14:53:28.694Z,64.57
2023-02-02T14:56:50.103Z,64.25
2023-02-02T15:00:01.167Z,64.10
2023-02-02T15:03:36.289Z,63.88
2023-02-02T15:06:43.359Z,63.71
2023-02-02T15:09:49.668Z,63.66
2023-02-02T15:13:04.658Z,63.43
2023-02-02T15:16:23.179Z,63.40
2023-02-02T15:19:37.017Z,63.30
2023-02-02T15:22:50.424Z,62.98
2023-02-02T15:26:00.987Z,62.69
2023-02-02T15:29:17.424Z,62.54
2023-02-02T15:32:28.501Z,62.28
2023-02-02T15:35:38.138Z,62.22
2023-02-02T15:38:47.764Z,62.20
2023-02-02T15:42:17.121Z,62.21
2023-02-02T15:45:43.649Z,62.13
2023-02-02T15:49:12.561Z,61.87
2023-02-02T15:52:25.324Z,62.01
2023-02-02T15:55:36.370Z,62.10
2023-02-02T15:58:48.825Z,61.71
2023-02-02T16:02:05.657Z,61.80
2023-02-02T16:05:40.001Z,61.84
2023-02-02T16:08:46.783Z,61.84
2023-02-02T16:11:53.703Z,61.74
2023-02-02T16:15:00.110Z,61.59
2023-02-02T16:18:15.549Z,61.45
2023-02-02T16:21:26.097Z,61.42
2023-02-02T16:24:35.602Z,61.66
2023-02-02T16:27:47.844Z,61.33
2023-02-02T16:30:55.642Z,60.95
2023-02-02T16:34:02.817Z,60.48
2023-02-02T16:37:14.474Z,60.08
2023-02-02T16:40:27.297Z,59.13
2023-02-02T16:43:33.711Z,58.03
2023-02-02T16:46:46.149Z,58.66
2023-02-02T16:49:52.969Z,58.98
2023-02-02T16:53:02.851Z,61.83
2023-02-02T16:56:10.423Z,62.68
2023-02-02T16:59:24.425Z,61.60
2023-02-02T17:02:35.234Z,60.21
2023-02-02T17:05:50.823Z,59.18
2023-02-02T17:08:57.062Z,58.01
2023-02-02T17:12:09.295Z,59.49
2023-02-02T17:15:35.999Z,61.57
2023-02-02T17:18:42.212Z,62.44
2023-02-02T17:21:49.597Z,61.69
2023-02-02T17:24:56.686Z,61.83
2023-02-02T17:28:03.880Z,60.25
2023-02-02T17:31:13.364Z,59.25
2023-02-02T17:34:19.746Z,58.35
2023-02-02T17:37:26.180Z,58.47
2023-02-02T17:40:32.527Z,61.25
2023-02-02T17:43:37.038Z,62.32
2023-02-02T17:46:43.243Z,62.27
2023-02-02T17:49:49.545Z,59.98
2023-02-02T17:52:55.828Z,57.61
2023-02-02T17:56:00.486Z,58.73
2023-02-02T17:59:07.057Z,58.22
2023-02-02T18:02:16.589Z,60.95
2023-02-02T18:05:23.143Z,62.26
2023-02-02T18:08:29.841Z,62.07
2023-02-02T18:11:36.133Z,60.13
2023-02-02T18:14:42.601Z,59.10
2023-02-02T18:17:49.034Z,59.74
2023-02-02T18:20:55.281Z,61.31
2023-02-02T18:24:01.587Z,62.47
2023-02-02T18:27:06.194Z,61.92
2023-02-02T18:30:14.700Z,60.78
2023-02-02T18:33:20.869Z,58.30
2023-02-02T18:36:27.193Z,57.13
2023-02-02T18:39:32.297Z,59.09
2023-02-02T18:42:38.638Z,60.16
2023-02-02T18:45:43.258Z,60.95
2023-02-02T18:48:49.467Z,59.51
2023-02-02T18:51:55.813Z,60.46
2023-02-02T18:55:00.409Z,62.11
2023-02-02T18:58:10.683Z,63.35
2023-02-02T19:01:18.882Z,62.08
2023-02-02T19:04:25.219Z,60.35
2023-02-02T19:07:46.983Z,60.02
2023-02-02T19:11:01.682Z,59.50
2023-02-02T19:14:16.587Z,57.44
2023-02-02T19:17:25.208Z,58.08
2023-02-02T19:20:32.533Z,59.12
2023-02-02T19:23:39.323Z,60.46
2023-02-02T19:26:49.658Z,60.34
2023-02-02T19:30:01.589Z,62.54
2023-02-02T19:33:13.762Z,63.97
2023-02-02T19:36:21.715Z,63.82
2023-02-02T19:39:31.953Z,62.50
2023-02-02T19:42:45.156Z,61.75
2023-02-02T19:45:52.101Z,60.90
2023-02-02T19:49:05.926Z,60.91
2023-02-02T19:52:20.289Z,61.37
2023-02-02T19:55:29.225Z,61.26
2023-02-02T19:58:38.503Z,60.95
2023-02-02T20:01:46.084Z,59.82
2023-02-02T20:05:01.529Z,58.18
2023-02-02T20:08:18.035Z,58.35
2023-02-02T20:11:33.169Z,58.81
2023-02-02T20:14:41.590Z,60.64
2023-02-02T20:17:47.924Z,60.68
2023-02-02T20:20:54.039Z,63.59
2023-02-02T20:24:00.581Z,64.62
2023-02-02T20:27:15.140Z,64.28
2023-02-02T20:30:28.456Z,63.67
2023-02-02T20:33:35.195Z,63.30
2023-02-02T20:36:44.327Z,63.24
2023-02-02T20:39:54.057Z,63.00
2023-02-02T20:43:00.313Z,62.78
2023-02-02T20:46:06.768Z,62.67
2023-02-02T20:49:13.393Z,62.54
2023-02-02T20:52:23.976Z,62.36
2023-02-02T20:55:30.470Z,62.19
2023-02-02T20:58:35.032Z,62.07
2023-02-02T21:01:41.509Z,62.70
2023-02-02T21:04:49.225Z,63.54
2023-02-02T21:07:55.813Z,64.29
2023-02-02T21:11:02.274Z,64.42
2023-02-02T21:14:08.880Z,64.72
2023-02-02T21:17:16.128Z,65.13
2023-02-02T21:20:23.247Z,64.90
2023-02-02T21:23:29.541Z,65.13
2023-02-02T21:26:34.089Z,65.44
2023-02-02T21:29:40.737Z,65.57
2023-02-02T21:32:47.054Z,65.80
2023-02-02T21:35:51.571Z,65.44
2023-02-02T21:39:07.330Z,65.97
2023-02-02T21:42:18.394Z,66.12
2023-02-02T21:45:36.939Z,66.41
2023-02-02T21:48:44.225Z,66.19
2023-02-02T21:51:50.867Z,65.99
2023-02-02T21:54:57.653Z,65.72
2023-02-02T21:58:13.083Z,65.62
2023-02-02T22:01:23.469Z,65.20
2023-02-02T22:04:30.647Z,65.10
2023-02-02T22:07:36.917Z,64.94
2023-02-02T22:10:45.534Z,64.79
2023-02-02T22:13:52.150Z,64.60
2023-02-02T22:17:00.545Z,64.78
2023-02-02T22:20:20.409Z,64.77
2023-02-02T22:23:28.649Z,64.78
2023-02-02T22:26:36.717Z,65.13
2023-02-02T22:29:42.997Z,65.31
2023-02-02T22:32:49.279Z,65.28
2023-02-02T22:35:54.147Z,65.59
2023-02-02T22:39:00.463Z,65.63
2023-02-02T22:42:04.993Z,65.36
2023-02-02T22:45:12.586Z,65.59
2023-02-02T22:48:19.137Z,65.56
2023-02-02T22:51:25.401Z,65.60
2023-02-02T22:54:32.196Z,65.48
2023-02-02T22:57:38.806Z,65.47
2023-02-02T23:00:45.084Z,65.25
2023-02-02T23:03:49.784Z,65.38
2023-02-02T23:06:56.125Z,65.42
2023-02-02T23:10:00.660Z,65.24
2023-02-02T23:13:07.517Z,65.26
2023-02-02T23:16:13.875Z,64.98
2023-02-02T23:19:18.520Z,65.02
2023-02-02T23:22:24.809Z,64.89
2023-02-02T23:25:29.330Z,64.59
2023-02-02T23:28:35.786Z,64.68
2023-02-02T23:31:42.138Z,64.42
2023-02-02T23:34:46.705Z,64.36
2023-02-02T23:37:52.960Z,64.31
2023-02-02T23:41:00.555Z,64.13
2023-02-02T23:44:07.319Z,64.10
2023-02-02T23:47:14.001Z,64.30
2023-02-02T23:50:20.391Z,64.81
2023-02-02T23:53:25.164Z,65.08
2023-02-02T23:56:30.064Z,65.51
2023-02-02T23:59:34.672Z,65.75
